Kezdőlap
METAR-TAF:

METAR-TAF

Repülőterek :

Xi'an, Kína

földrajzi szélesség: 34-26N, földrajzi hosszúság: 108-45E, magasság: 479 m

Jelenlegi meteorológiai megfigyelések

A jelentés 20 perccel ezelõtt készült, 22:00 UTC
Keleti szél 4 kt
Hőmérséklet 8°C
Páratartalom 81%
Légköri nyomás 1019 hPa
Látótávolság: 2000 m
Párásság

METAR: ZLXY 132200Z 08002MPS 2000 BR NSC 08/05 Q1019 NOSIG

Idő: 06:20 (22:20 UTC)

Előrejelzés

A jelentés 7 órával és 13 perccel ezelõtt készült, 15:07 UTC
Az előrejelzés 13-én 18 óra UTC és 14-én 18 óra UTC között érvényes
Kelet-északkeleti szél 6 kt
Látótávolság: 1400 m
Párásság
13-én 18 óra UTC és 13-én 24 óra UTC között ideiglenes
Látótávolság: 0700 m
köd
14-én 06 óra UTC és 14-én 10 óra UTC között ideiglenes
Látótávolság: 1500 m
enyhe esõ

TAF: ZLXY 131507Z 1318/1418 06003MPS 1400 BR NSC TX09/1407Z TN01/1322Z TEMPO 1318/1324 0700 FG TEMPO 1406/1410 1500 -RA

Meteorológiai megfigyelések és előrejelzések több, mint 4000 repülőtéren (METAR és TAF jelentéseket).

A térképen piros és sárga pontok jelzik az elérhető meteorológiai állomásokat.

Mozgassa az egeret a pont fölött, hogy megjelenjen az állomás neve.

Azután kattintson az időjárási megfigyelések és előrejelzések megtekintéséhez.

A térkép megváltoztatása: kattintson a fekete keresztel jelölt zöld gombra ráközelítéshez, a vonallal jelölt zöld gombra távolításhoz, vagy a zöld nyilakra a szomszédos térképek eléréséhez.


METAR-TAF: